Time;durP1;ratioP1;P1;durP2;ratioP2;P2;SDS_P1;SDS_P2;PMS_P1;PMS_P2;Temp;Humidity;BMP_temperature;BMP_pressure;BME280_temperature;BME280_humidity;BME280_pressure;Samples;Min_cycle;Max_cycle;Signal;HPM_P1;HPM_P2
2021/03/26 00:01:28;;;;;;;30.95;16.55;;;6.20;99.90;;;;;;5112937;28;20470;-48
2021/03/26 00:03:56;;;;;;;35.50;16.75;;;6.10;99.90;;;;;;5112657;28;20422;-54
2021/03/26 00:06:30;;;;;;;35.63;17.55;;;6.10;99.90;;;;;;5112716;28;20024;-50
2021/03/26 00:08:58;;;;;;;27.48;14.90;;;6.10;99.90;;;;;;5111808;28;20069;-50
2021/03/26 00:11:28;;;;;;;37.90;17.30;;;6.00;99.90;;;;;;5112891;28;20051;-52
2021/03/26 00:13:54;;;;;;;34.30;16.25;;;6.00;99.90;;;;;;5112610;28;20106;-48
2021/03/26 00:16:20;;;;;;;31.48;15.70;;;6.00;99.90;;;;;;5113255;28;20490;-49
2021/03/26 00:18:47;;;;;;;31.88;15.35;;;5.90;99.90;;;;;;5116283;28;20054;-50
2021/03/26 00:21:13;;;;;;;38.70;17.02;;;5.90;99.90;;;;;;5116635;28;20027;-50
2021/03/26 00:23:39;;;;;;;32.95;16.23;;;5.90;99.90;;;;;;5115593;28;20027;-49
2021/03/26 00:26:05;;;;;;;31.10;15.80;;;5.90;99.90;;;;;;5116483;28;20111;-50
2021/03/26 00:28:31;;;;;;;26.85;13.98;;;5.90;99.90;;;;;;5116305;28;20081;-48
2021/03/26 00:30:57;;;;;;;32.10;15.43;;;5.80;99.90;;;;;;5116264;28;20035;-48
2021/03/26 00:33:23;;;;;;;31.83;15.30;;;5.80;99.90;;;;;;5116154;28;20028;-49
2021/03/26 00:35:49;;;;;;;32.60;17.00;;;5.80;99.90;;;;;;5116166;28;20475;-47
2021/03/26 00:38:15;;;;;;;33.97;16.27;;;5.80;99.90;;;;;;5115451;28;20031;-50
2021/03/26 00:40:41;;;;;;;35.10;17.00;;;5.70;99.90;;;;;;5116249;27;20030;-49
2021/03/26 00:43:06;;;;;;;34.30;17.02;;;5.70;99.90;;;;;;5116190;28;20057;-48
2021/03/26 00:45:37;;;;;;;34.80;16.70;;;5.60;99.90;;;;;;5116055;28;20044;-48
2021/03/26 00:48:04;;;;;;;33.53;17.20;;;5.60;99.90;;;;;;5116055;28;20028;-49
2021/03/26 00:50:42;;;;;;;33.40;17.17;;;5.60;99.90;;;;;;5115747;28;20114;-48
2021/03/26 00:53:18;;;;;;;32.25;16.17;;;5.50;99.90;;;;;;5115037;28;20019;-49
2021/03/26 00:55:44;;;;;;;28.15;15.02;;;5.40;99.90;;;;;;5115780;28;20030;-49
2021/03/26 00:58:10;;;;;;;30.80;15.82;;;5.20;99.90;;;;;;5115936;28;20039;-48
2021/03/26 01:00:37;;;;;;;32.45;16.02;;;5.10;99.90;;;;;;5115747;28;20381;-49
2021/03/26 01:03:04;;;;;;;33.67;15.93;;;5.00;99.90;;;;;;5115869;28;20038;-48
2021/03/26 01:05:34;;;;;;;40.08;16.83;;;4.90;99.90;;;;;;5115447;28;20023;-47
2021/03/26 01:08:00;;;;;;;30.33;15.55;;;4.80;99.90;;;;;;5114705;28;20023;-48
2021/03/26 01:10:31;;;;;;;27.50;14.02;;;4.70;99.90;;;;;;5115720;27;20031;-50
2021/03/26 01:12:59;;;;;;;26.02;14.60;;;4.60;99.90;;;;;;5115591;28;20024;-48
2021/03/26 01:15:26;;;;;;;35.58;16.67;;;4.50;99.90;;;;;;5115413;28;20043;-48
2021/03/26 01:17:54;;;;;;;32.72;15.00;;;4.30;99.90;;;;;;5115574;28;20027;-48
2021/03/26 01:20:24;;;;;;;34.03;15.52;;;4.20;99.90;;;;;;5115206;28;20049;-46
2021/03/26 01:22:49;;;;;;;28.08;14.88;;;4.20;99.90;;;;;;5115526;28;20024;-52
2021/03/26 01:25:25;;;;;;;32.65;17.35;;;4.10;99.90;;;;;;5112483;28;20035;-49
2021/03/26 01:27:50;;;;;;;31.48;16.27;;;4.00;99.90;;;;;;5114608;28;20024;-47
2021/03/26 01:30:20;;;;;;;33.10;15.50;;;3.90;99.90;;;;;;5114925;28;20042;-48
2021/03/26 01:32:45;;;;;;;28.05;15.57;;;3.90;99.90;;;;;;5115211;28;20066;-48
2021/03/26 01:35:11;;;;;;;31.70;15.35;;;3.80;99.90;;;;;;5114928;28;20100;-47
2021/03/26 01:37:37;;;;;;;32.55;16.27;;;3.70;99.90;;;;;;5115274;28;20398;-53
2021/03/26 01:40:08;;;;;;;29.15;14.35;;;3.70;99.90;;;;;;5113905;28;20020;-48
2021/03/26 01:42:36;;;;;;;30.25;15.45;;;3.60;99.90;;;;;;5115047;27;20019;-47
2021/03/26 01:45:14;;;;;;;38.70;18.30;;;3.50;99.90;;;;;;5114713;28;20043;-50
2021/03/26 01:47:41;;;;;;;36.92;17.52;;;3.50;99.90;;;;;;5115018;28;20019;-51
2021/03/26 01:50:08;;;;;;;32.72;16.45;;;3.40;99.90;;;;;;5114826;28;20497;-48
2021/03/26 01:52:34;;;;;;;35.15;19.63;;;3.40;99.90;;;;;;5114506;28;20085;-47
2021/03/26 01:55:00;;;;;;;35.35;16.58;;;3.30;99.90;;;;;;5113710;28;20023;-48
2021/03/26 01:57:25;;;;;;;41.55;18.20;;;3.30;99.90;;;;;;5114766;28;20367;-49
2021/03/26 01:59:51;;;;;;;43.00;19.17;;;3.20;99.90;;;;;;5114615;28;20037;-47
2021/03/26 02:02:20;;;;;;;47.30;17.35;;;3.20;99.90;;;;;;5114605;28;20064;-50
2021/03/26 02:04:48;;;;;;;39.88;18.50;;;3.10;99.90;;;;;;5114491;28;20043;-48
2021/03/26 02:07:15;;;;;;;35.55;18.08;;;3.10;99.90;;;;;;5114367;28;20379;-49
2021/03/26 02:09:41;;;;;;;43.63;20.17;;;3.10;99.90;;;;;;5113636;28;20205;-46
2021/03/26 02:12:20;;;;;;;36.13;18.10;;;3.10;99.90;;;;;;5114350;28;20028;-48
2021/03/26 02:15:06;;;;;;;30.15;15.02;;;3.10;99.90;;;;;;5114449;28;20452;-52
2021/03/26 02:17:33;;;;;;;34.53;15.90;;;3.20;99.90;;;;;;5114421;28;20042;-48
2021/03/26 02:20:04;;;;;;;37.90;16.98;;;3.30;99.90;;;;;;5114052;28;20115;-48
2021/03/26 02:22:31;;;;;;;31.42;15.18;;;3.30;99.90;;;;;;5114215;28;20053;-49
2021/03/26 02:24:58;;;;;;;42.72;19.23;;;3.40;99.90;;;;;;5129188;27;20030;-50
2021/03/26 02:27:33;;;;;;;35.38;17.85;;;3.50;99.90;;;;;;5114254;28;20061;-49
2021/03/26 02:30:05;;;;;;;36.40;16.73;;;3.60;99.90;;;;;;5114051;28;20028;-48
2021/03/26 02:32:37;;;;;;;27.75;13.50;;;3.60;99.90;;;;;;5113864;28;20424;-48
2021/03/26 02:35:15;;;;;;;37.00;17.95;;;3.70;99.90;;;;;;5113920;28;20035;-47
2021/03/26 02:37:48;;;;;;;37.10;17.63;;;3.80;99.90;;;;;;5113933;28;20015;-50
2021/03/26 02:40:24;;;;;;;47.67;20.10;;;3.90;99.90;;;;;;5112915;28;20073;-50
2021/03/26 02:42:57;;;;;;;38.17;17.65;;;4.00;99.90;;;;;;5113941;28;20531;-51
2021/03/26 02:45:31;;;;;;;41.70;21.33;;;4.00;99.90;;;;;;5113484;28;20066;-49
2021/03/26 02:48:04;;;;;;;35.25;17.58;;;4.10;99.90;;;;;;5113865;28;20480;-49
2021/03/26 02:50:57;;;;;;;38.08;18.75;;;4.10;99.90;;;;;;5113681;28;21610;-48
2021/03/26 02:54:02;;;;;;;40.05;19.52;;;4.10;99.90;;;;;;5112493;28;20118;-50
2021/03/26 02:56:36;;;;;;;38.50;19.35;;;4.20;99.90;;;;;;5111884;28;20428;-47
2021/03/26 02:59:11;;;;;;;41.15;18.95;;;4.20;99.90;;;;;;5113608;28;20077;-50
2021/03/26 03:01:41;;;;;;;31.10;15.27;;;4.20;99.90;;;;;;5113373;27;20479;-48
2021/03/26 03:04:40;;;;;;;32.03;16.48;;;4.10;99.90;;;;;;5113429;28;20110;-50
2021/03/26 03:07:21;;;;;;;34.33;15.80;;;4.10;99.90;;;;;;5072630;28;20093;-48
2021/03/26 03:09:52;;;;;;;36.67;16.80;;;4.00;99.90;;;;;;5071933;28;20024;-50
2021/03/26 03:12:25;;;;;;;31.58;15.63;;;4.00;99.90;;;;;;5072487;28;20032;-49
2021/03/26 03:15:14;;;;;;;37.53;19.17;;;3.90;99.90;;;;;;5072978;28;20479;-49
2021/03/26 03:17:47;;;;;;;43.55;19.92;;;3.90;99.90;;;;;;5072901;28;20052;-52
2021/03/26 03:20:26;;;;;;;38.38;18.35;;;3.80;99.90;;;;;;5072611;28;20091;-48
2021/03/26 03:23:10;;;;;;;34.65;17.08;;;3.70;99.90;;;;;;5071773;28;20032;-52
2021/03/26 03:25:35;;;;;;;37.72;18.58;;;3.60;99.90;;;;;;5072605;28;20027;-48
2021/03/26 03:28:40;;;;;;;36.03;17.23;;;3.50;99.90;;;;;;5072759;28;20111;-51
2021/03/26 03:31:24;;;;;;;42.63;18.83;;;3.40;99.90;;;;;;5072572;28;20047;-53
2021/03/26 03:34:09;;;;;;;29.02;13.25;;;3.30;99.90;;;;;;5072604;28;20024;-48
2021/03/26 03:37:08;;;;;;;39.90;18.70;;;3.20;99.90;;;;;;5072564;28;20056;-49
2021/03/26 03:39:44;;;;;;;40.13;18.15;;;3.20;99.90;;;;;;5066399;28;20036;-53
2021/03/26 03:42:26;;;;;;;33.53;16.80;;;3.20;99.90;;;;;;5072505;28;20024;-51
2021/03/26 03:45:05;;;;;;;33.42;14.98;;;3.30;99.90;;;;;;5071153;28;20430;-50
2021/03/26 03:47:40;;;;;;;38.75;17.98;;;3.40;99.90;;;;;;5072313;28;20028;-49
2021/03/26 03:50:10;;;;;;;31.42;14.98;;;3.50;99.90;;;;;;5072619;28;20028;-49
2021/03/26 03:53:03;;;;;;;30.50;16.42;;;3.50;99.90;;;;;;5074941;28;20471;-51
2021/03/26 03:55:35;;;;;;;37.88;17.42;;;3.60;99.90;;;;;;5076504;28;20111;-51
2021/03/26 03:58:25;;;;;;;27.73;14.18;;;3.70;99.90;;;;;;5076254;28;20016;-50
2021/03/26 04:01:12;;;;;;;33.08;14.60;;;3.80;99.90;;;;;;5076370;28;20028;-47
2021/03/26 04:04:18;;;;;;;35.17;16.17;;;3.90;99.90;;;;;;5076411;28;20505;-50
2021/03/26 04:06:50;;;;;;;32.13;14.43;;;4.00;99.90;;;;;;5070688;28;20041;-49
2021/03/26 04:09:20;;;;;;;33.75;15.15;;;4.00;99.90;;;;;;5075480;28;20412;-49
2021/03/26 04:11:56;;;;;;;36.97;17.83;;;4.10;99.90;;;;;;5076138;28;20434;-46
2021/03/26 04:14:31;;;;;;;38.13;16.52;;;4.20;99.90;;;;;;5076056;28;20063;-49
2021/03/26 04:17:02;;;;;;;34.28;16.58;;;4.20;99.90;;;;;;5076016;28;20034;-48
2021/03/26 04:19:36;;;;;;;41.13;17.23;;;4.20;99.90;;;;;;5076030;28;20066;-48
2021/03/26 04:22:10;;;;;;;33.08;16.02;;;4.30;99.90;;;;;;5075881;28;20062;-48
2021/03/26 04:24:44;;;;;;;35.55;17.52;;;4.30;99.90;;;;;;5074951;28;20074;-48
2021/03/26 04:27:21;;;;;;;41.63;18.48;;;4.30;99.90;;;;;;5075730;28;20016;-48
2021/03/26 04:29:57;;;;;;;42.25;19.17;;;4.40;99.90;;;;;;5075875;28;20067;-50
2021/03/26 04:32:25;;;;;;;42.38;18.05;;;4.40;99.90;;;;;;5075507;28;20020;-51
2021/03/26 04:34:53;;;;;;;39.03;18.23;;;4.50;99.90;;;;;;5075837;28;20044;-53
2021/03/26 04:37:36;;;;;;;36.60;17.90;;;4.50;99.90;;;;;;5075467;28;20103;-48
2021/03/26 04:40:33;;;;;;;41.50;18.33;;;4.50;99.90;;;;;;5074706;28;20036;-47
2021/03/26 04:43:17;;;;;;;;;;;4.60;99.90;;;;;;5073797;28;20078;-49
2021/03/26 04:46:06;;;;;;;37.28;17.33;;;4.60;99.90;;;;;;5074501;28;19916;-49
2021/03/26 04:48:53;;;;;;;35.10;17.27;;;4.60;99.90;;;;;;5075318;28;20024;-49
2021/03/26 04:51:26;;;;;;;42.75;18.88;;;4.70;99.90;;;;;;5094271;28;20019;-48
2021/03/26 04:54:45;;;;;;;35.10;17.65;;;4.60;99.90;;;;;;5115199;28;20020;-51
2021/03/26 04:57:29;;;;;;;39.90;17.88;;;4.70;99.90;;;;;;5052752;28;20430;-51
2021/03/26 05:00:22;;;;;;;41.70;18.60;;;4.80;99.90;;;;;;5053221;28;20029;-52
2021/03/26 05:03:19;;;;;;;37.75;17.40;;;4.80;99.90;;;;;;5108265;28;20067;-49
2021/03/26 05:05:49;;;;;;;37.92;15.95;;;4.90;99.90;;;;;;5131753;27;20110;-50
2021/03/26 05:08:16;;;;;;;33.85;16.45;;;4.90;99.90;;;;;;5113416;28;20492;-51
2021/03/26 05:10:43;;;;;;;34.33;16.02;;;5.00;99.90;;;;;;5115706;28;20036;-52
2021/03/26 05:13:14;;;;;;;31.95;17.10;;;5.00;99.90;;;;;;5115484;28;20059;-53
2021/03/26 05:16:14;;;;;;;37.42;17.77;;;5.10;99.90;;;;;;5115682;28;20015;-50
2021/03/26 05:18:45;;;;;;;40.13;18.33;;;5.10;99.90;;;;;;5095023;28;20031;-51
2021/03/26 05:21:12;;;;;;;33.83;15.82;;;5.10;99.90;;;;;;5115526;28;20016;-51
2021/03/26 05:23:57;;;;;;;30.60;15.60;;;5.20;99.90;;;;;;5114133;28;20530;-49
2021/03/26 05:26:23;;;;;;;37.72;17.42;;;5.20;99.90;;;;;;5115181;28;20027;-52
2021/03/26 05:28:49;;;;;;;35.47;16.90;;;5.20;99.90;;;;;;5115374;28;20020;-53
2021/03/26 05:31:41;;;;;;;30.88;15.55;;;5.30;99.90;;;;;;5115414;28;20481;-47
2021/03/26 05:34:15;;;;;;;34.40;15.93;;;5.30;99.90;;;;;;5115285;27;20472;-50
2021/03/26 05:37:02;;;;;;;38.95;18.42;;;5.30;99.90;;;;;;5115213;28;20119;-53
2021/03/26 05:39:31;;;;;;;34.90;18.77;;;5.40;99.90;;;;;;5114367;28;20019;-49
2021/03/26 05:42:40;;;;;;;33.95;16.90;;;5.40;99.90;;;;;;5114933;28;20034;-51
2021/03/26 05:45:23;;;;;;;43.70;18.75;;;5.50;99.90;;;;;;5114874;28;20051;-48
2021/03/26 05:48:01;;;;;;;37.13;18.20;;;5.60;99.90;;;;;;5114957;28;20024;-51
2021/03/26 05:50:54;;;;;;;34.20;17.98;;;5.60;99.90;;;;;;5130702;27;20023;-53
2021/03/26 05:53:20;;;;;;;32.08;17.08;;;5.70;99.90;;;;;;5113707;28;20092;-52
2021/03/26 05:56:13;;;;;;;28.17;15.43;;;5.80;99.90;;;;;;5114758;28;20059;-50
2021/03/26 05:58:53;;;;;;;32.00;15.57;;;5.90;99.90;;;;;;5114572;28;20024;-52
2021/03/26 06:01:37;;;;;;;40.38;20.13;;;5.90;99.90;;;;;;5089739;28;20021;-49
2021/03/26 06:04:23;;;;;;;38.42;19.92;;;5.90;99.90;;;;;;5093535;28;20036;-49
2021/03/26 06:07:14;;;;;;;46.20;20.88;;;6.00;99.90;;;;;;5073856;28;20059;-51
2021/03/26 06:09:51;;;;;;;29.20;16.52;;;6.10;99.90;;;;;;5072346;28;20058;-50
2021/03/26 06:12:41;;;;;;;40.75;19.38;;;6.10;99.90;;;;;;5073298;28;20055;-50
2021/03/26 06:15:37;;;;;;;35.47;17.08;;;6.20;99.90;;;;;;5072886;28;20028;-53
2021/03/26 06:18:21;;;;;;;39.90;19.83;;;6.20;99.90;;;;;;5073604;28;20025;-52
2021/03/26 06:21:23;;;;;;;43.63;18.75;;;6.30;99.90;;;;;;5073301;28;20021;-51
2021/03/26 06:24:00;;;;;;;46.15;20.55;;;6.30;99.90;;;;;;5072263;28;20028;-49
2021/03/26 06:26:44;;;;;;;42.30;19.80;;;6.40;99.90;;;;;;5073176;28;20021;-50
2021/03/26 06:29:35;;;;;;;39.80;19.27;;;6.40;99.90;;;;;;5073435;28;20085;-51
2021/03/26 06:32:21;;;;;;;38.75;18.33;;;6.40;99.90;;;;;;5073125;28;20029;-49
2021/03/26 06:35:07;;;;;;;45.90;19.38;;;6.50;99.90;;;;;;5073089;28;20059;-49
2021/03/26 06:38:10;;;;;;;42.07;20.13;;;6.50;99.90;;;;;;5073212;28;20112;-50
2021/03/26 06:41:02;;;;;;;49.53;23.48;;;6.50;99.90;;;;;;5072786;28;20020;-50
2021/03/26 06:43:56;;;;;;;44.47;21.55;;;6.60;99.90;;;;;;5072920;28;20353;-47
2021/03/26 06:46:31;;;;;;;38.17;20.05;;;6.60;99.90;;;;;;5072560;28;20033;-51
2021/03/26 06:49:28;;;;;;;45.15;21.23;;;6.60;99.90;;;;;;5072494;28;20533;-52
2021/03/26 06:52:01;;;;;;;40.38;20.77;;;6.60;99.90;;;;;;5080328;28;20470;-50
2021/03/26 06:54:45;;;;;;;46.70;23.60;;;6.60;99.90;;;;;;5112414;28;20069;-54
2021/03/26 06:57:50;;;;;;;51.65;25.77;;;6.60;99.90;;;;;;5113350;28;20020;-49
2021/03/26 07:00:30;;;;;;;49.65;22.25;;;6.70;99.90;;;;;;5113384;28;20069;-50
2021/03/26 07:03:07;;;;;;;40.53;20.50;;;6.70;99.90;;;;;;5113389;28;20028;-54
2021/03/26 07:06:09;;;;;;;46.47;22.08;;;6.70;99.90;;;;;;5113003;28;20055;-54
2021/03/26 07:08:59;;;;;;;36.85;17.70;;;6.80;99.90;;;;;;5112303;28;20015;-52
2021/03/26 07:11:40;;;;;;;44.72;21.13;;;7.00;99.90;;;;;;5113048;28;20024;-51
2021/03/26 07:14:29;;;;;;;40.42;19.90;;;7.10;99.90;;;;;;5112685;28;20016;-56
2021/03/26 07:17:20;;;;;;;36.25;19.60;;;7.30;99.90;;;;;;5113133;28;20089;-52
2021/03/26 07:20:13;;;;;;;34.65;17.98;;;7.40;99.90;;;;;;5081145;28;20085;-56
2021/03/26 07:23:00;;;;;;;42.20;21.30;;;7.70;99.90;;;;;;5112969;28;20106;-55
2021/03/26 07:25:52;;;;;;;38.22;19.88;;;8.00;99.90;;;;;;5112568;28;20023;-52
2021/03/26 07:28:34;;;;;;;42.58;21.08;;;8.50;99.90;;;;;;5112829;28;20012;-53
2021/03/26 07:31:34;;;;;;;38.47;20.65;;;8.90;99.90;;;;;;5128763;27;20020;-57
2021/03/26 07:34:53;;;;;;;45.58;23.08;;;9.20;99.90;;;;;;5112689;28;20026;-51
2021/03/26 07:37:49;;;;;;;46.53;23.08;;;9.30;99.90;;;;;;5050208;28;20113;-55
2021/03/26 07:40:48;;;;;;;39.55;19.95;;;9.30;99.90;;;;;;5033390;28;20472;-53
2021/03/26 07:43:16;;;;;;;43.22;22.52;;;9.30;99.90;;;;;;5112682;28;20032;-54
2021/03/26 07:46:03;;;;;;;36.95;19.42;;;9.30;99.90;;;;;;5112540;28;20059;-55
2021/03/26 07:48:41;;;;;;;;;;;9.40;99.90;;;;;;5113275;28;20043;-54
2021/03/26 07:51:12;;;;;;;38.55;20.33;;;9.50;99.90;;;;;;5112690;28;20373;-57
2021/03/26 07:54:08;;;;;;;43.15;20.67;;;9.70;99.90;;;;;;5110965;28;20031;-55
2021/03/26 07:56:54;;;;;;;36.05;19.05;;;10.70;99.90;;;;;;5112764;28;20378;-55
2021/03/26 07:59:35;;;;;;;;;;;11.80;99.90;;;;;;5113128;28;20313;-54
2021/03/26 08:02:20;;;;;;;40.97;21.98;;;12.30;98.00;;;;;;5112370;28;20364;-57
2021/03/26 08:04:54;;;;;;;37.63;20.00;;;12.90;97.20;;;;;;5112389;28;20015;-51
2021/03/26 08:08:03;;;;;;;38.42;19.83;;;13.80;95.30;;;;;;5112731;28;20036;-55
2021/03/26 08:10:31;;;;;;;40.22;20.13;;;15.20;90.70;;;;;;5112595;28;20023;-52
2021/03/26 08:13:06;;;;;;;34.35;19.30;;;16.40;90.80;;;;;;5112436;28;20031;-56
2021/03/26 08:16:12;;;;;;;31.08;18.95;;;17.20;88.30;;;;;;5112392;28;20027;-56
2021/03/26 08:19:14;;;;;;;29.27;17.35;;;17.40;83.20;;;;;;5112300;28;20022;-58
2021/03/26 08:22:21;;;;;;;32.35;19.02;;;17.80;79.60;;;;;;5112260;28;20026;-56
2021/03/26 08:25:06;;;;;;;32.28;19.15;;;17.60;74.90;;;;;;5089758;28;20481;-54
2021/03/26 08:28:09;;;;;;;31.40;18.42;;;17.60;82.60;;;;;;5112609;28;20084;-55
2021/03/26 08:30:49;;;;;;;42.80;22.20;;;18.40;74.70;;;;;;5112094;28;20028;-55
2021/03/26 08:33:23;;;;;;;38.47;23.40;;;18.90;77.80;;;;;;5112212;28;20103;-58
2021/03/26 08:36:17;;;;;;;37.58;23.25;;;18.90;74.30;;;;;;5112164;28;20016;-54
2021/03/26 08:39:20;;;;;;;37.75;21.98;;;19.00;70.80;;;;;;5113589;28;20031;-57
2021/03/26 08:42:03;;;;;;;36.05;22.85;;;18.60;68.90;;;;;;5131639;27;20046;-58
2021/03/26 08:44:33;;;;;;;33.50;21.27;;;18.20;69.90;;;;;;5115595;28;20456;-56
2021/03/26 08:46:59;;;;;;;40.17;24.67;;;18.10;75.00;;;;;;5115924;28;20099;-53
2021/03/26 08:49:56;;;;;;;32.42;20.25;;;18.10;73.90;;;;;;5115999;28;20027;-57
2021/03/26 08:52:50;;;;;;;33.38;22.60;;;17.90;68.30;;;;;;5131606;27;20035;-53
2021/03/26 08:55:28;;;;;;;34.75;20.35;;;18.30;66.50;;;;;;5113824;28;20221;-56
2021/03/26 08:58:19;;;;;;;37.08;22.90;;;18.20;69.90;;;;;;5115681;28;20047;-57
2021/03/26 09:01:06;;;;;;;39.55;23.70;;;18.60;66.80;;;;;;5115309;27;20055;-58
2021/03/26 09:03:45;;;;;;;30.73;19.65;;;19.30;66.40;;;;;;5115479;28;20038;-57
2021/03/26 09:06:20;;;;;;;28.60;19.83;;;20.00;64.90;;;;;;5131565;27;20502;-56
2021/03/26 09:09:10;;;;;;;35.60;23.60;;;20.20;67.90;;;;;;5114015;28;20071;-51
2021/03/26 09:11:57;;;;;;;28.73;18.75;;;20.60;64.00;;;;;;5115295;28;20031;-58
2021/03/26 09:14:25;;;;;;;37.25;23.42;;;21.10;64.80;;;;;;5115139;28;20036;-57
2021/03/26 09:17:25;;;;;;;31.67;20.70;;;21.50;60.90;;;;;;5115235;28;20485;-54
2021/03/26 09:19:58;;;;;;;30.75;21.33;;;21.60;57.00;;;;;;5115254;28;20032;-56
2021/03/26 09:22:43;;;;;;;33.55;21.40;;;21.60;59.40;;;;;;5115148;28;20450;-57
2021/03/26 09:25:34;;;;;;;31.55;20.23;;;21.50;58.80;;;;;;5115141;27;20352;-54
2021/03/26 09:28:08;;;;;;;31.23;19.88;;;21.40;57.90;;;;;;5115038;28;20062;-57
2021/03/26 09:30:39;;;;;;;26.15;18.60;;;21.60;59.80;;;;;;5114834;28;20100;-56
2021/03/26 09:33:08;;;;;;;32.35;22.00;;;21.70;59.20;;;;;;5114976;28;20398;-56
2021/03/26 09:35:36;;;;;;;31.13;20.40;;;21.80;58.40;;;;;;5114914;28;20102;-56
2021/03/26 09:38:09;;;;;;;28.33;18.08;;;21.60;57.80;;;;;;5113500;28;20028;-55
2021/03/26 09:40:51;;;;;;;30.58;20.92;;;21.60;58.00;;;;;;5114857;28;20072;-55
2021/03/26 09:43:27;;;;;;;31.30;20.17;;;21.50;54.90;;;;;;5114979;28;20024;-56
2021/03/26 09:46:16;;;;;;;27.08;18.92;;;21.60;58.40;;;;;;5114682;28;20055;-58
2021/03/26 09:48:54;;;;;;;29.50;19.92;;;21.80;54.50;;;;;;5114216;28;20028;-56
2021/03/26 09:51:38;;;;;;;27.90;18.05;;;22.20;56.00;;;;;;5114328;28;20026;-56
2021/03/26 09:54:18;;;;;;;30.17;20.40;;;22.40;55.10;;;;;;5113119;28;20047;-54
2021/03/26 09:56:59;;;;;;;34.83;21.55;;;22.30;55.20;;;;;;5113177;28;20463;-58
2021/03/26 09:59:52;;;;;;;32.33;21.55;;;22.30;54.40;;;;;;5114672;28;20031;-57
2021/03/26 10:02:29;;;;;;;34.30;22.23;;;21.90;53.30;;;;;;5114169;28;20020;-55
2021/03/26 10:05:01;;;;;;;33.08;20.60;;;21.40;54.00;;;;;;5129878;27;20020;-56
2021/03/26 10:07:47;;;;;;;34.15;22.45;;;21.00;55.20;;;;;;5114475;28;20020;-56
2021/03/26 10:13:01;;;;;;;50.63;31.85;;;20.50;52.60;;;;;;5114381;28;20152;-57
2021/03/26 10:15:35;;;;;;;41.00;26.52;;;20.30;51.90;;;;;;5113893;27;20023;-56
2021/03/26 10:18:37;;;;;;;41.88;25.58;;;20.30;53.40;;;;;;5113907;28;20032;-56
2021/03/26 10:21:03;;;;;;;54.72;33.25;;;20.10;51.40;;;;;;5113857;28;20055;-56
2021/03/26 10:23:37;;;;;;;55.45;32.30;;;19.50;53.60;;;;;;5112719;28;20058;-55
2021/03/26 10:26:17;;;;;;;39.63;24.00;;;19.20;53.10;;;;;;5113858;28;20024;-58
2021/03/26 10:28:43;;;;;;;33.35;21.73;;;19.00;54.50;;;;;;5114094;28;20383;-56
2021/03/26 10:31:10;;;;;;;37.78;23.48;;;19.00;55.20;;;;;;5113737;28;20055;-56
2021/03/26 10:33:50;;;;;;;54.22;30.50;;;19.00;54.70;;;;;;5113763;28;20073;-56
2021/03/26 10:36:44;;;;;;;66.20;33.42;;;18.80;54.70;;;;;;5113679;28;20024;-58
2021/03/26 10:39:20;;;;;;;39.80;23.85;;;18.70;54.00;;;;;;5112477;28;20033;-58
2021/03/26 10:42:04;;;;;;;35.83;20.33;;;18.60;55.30;;;;;;5113541;28;20020;-53
2021/03/26 10:45:02;;;;;;;45.40;28.15;;;18.70;55.30;;;;;;5113472;28;20056;-54
2021/03/26 10:47:39;;;;;;;65.53;34.33;;;18.50;55.50;;;;;;5113428;28;20023;-55
2021/03/26 10:50:33;;;;;;;48.10;28.33;;;18.30;55.10;;;;;;5113634;28;20028;-52
2021/03/26 10:53:16;;;;;;;39.33;25.13;;;18.30;55.90;;;;;;5071391;28;20051;-57
2021/03/26 10:56:01;;;;;;;49.80;27.27;;;18.10;56.40;;;;;;5072841;28;20031;-58
2021/03/26 10:58:34;;;;;;;38.53;22.77;;;18.00;57.00;;;;;;5072928;28;20035;-57
2021/03/26 11:01:06;;;;;;;40.75;23.23;;;18.10;57.00;;;;;;5072319;28;20085;-55
2021/03/26 11:03:40;;;;;;;49.63;27.00;;;18.40;56.90;;;;;;5072315;28;20443;-57
2021/03/26 11:06:53;;;;;;;47.97;26.05;;;18.20;56.10;;;;;;5104234;28;20058;-53
2021/03/26 11:09:26;;;;;;;41.13;23.17;;;18.30;56.70;;;;;;5108954;28;20513;-54
2021/03/26 11:12:16;;;;;;;40.60;23.75;;;18.50;56.70;;;;;;5112814;28;20449;-56
2021/03/26 11:15:02;;;;;;;32.58;19.35;;;18.60;56.20;;;;;;5113077;28;20394;-58
2021/03/26 11:17:30;;;;;;;;;;;18.80;56.50;;;;;;5113952;28;20028;-57
2021/03/26 11:19:58;;;;;;;47.17;28.08;;;18.90;55.40;;;;;;5113136;28;19914;-53
2021/03/26 11:22:28;;;;;;;48.88;26.63;;;18.60;55.50;;;;;;5112814;28;20054;-51
2021/03/26 11:25:09;;;;;;;49.60;29.63;;;18.50;56.00;;;;;;5111537;28;20027;-56
2021/03/26 11:27:49;;;;;;;56.15;31.20;;;18.30;55.90;;;;;;5113061;28;20107;-55
2021/03/26 11:30:45;;;;;;;51.58;31.35;;;18.20;55.80;;;;;;5112971;28;20035;-58
2021/03/26 11:33:19;;;;;;;50.40;30.35;;;18.20;55.30;;;;;;5112633;28;20034;-57
2021/03/26 11:35:47;;;;;;;45.88;28.08;;;17.90;56.00;;;;;;5112810;28;20030;-57
2021/03/26 11:38:27;;;;;;;32.58;20.55;;;17.70;56.30;;;;;;5111478;28;20031;-57
2021/03/26 11:41:06;;;;;;;39.20;22.40;;;17.60;57.00;;;;;;5112634;28;20466;-57
2021/03/26 11:43:47;;;;;;;39.97;21.92;;;17.40;57.30;;;;;;5112624;28;20086;-51
2021/03/26 11:46:22;;;;;;;36.70;20.48;;;17.30;57.70;;;;;;5112792;28;20081;-52
2021/03/26 11:48:57;;;;;;;36.97;20.95;;;17.30;57.80;;;;;;5112718;28;20023;-56
2021/03/26 11:51:39;;;;;;;41.58;24.02;;;17.50;57.90;;;;;;5128178;28;20028;-57
2021/03/26 11:54:19;;;;;;;45.67;25.45;;;17.60;57.20;;;;;;5111208;28;20023;-57
2021/03/26 11:57:03;;;;;;;53.28;30.20;;;17.60;57.50;;;;;;5111642;28;20403;-57
2021/03/26 11:59:53;;;;;;;36.03;21.70;;;17.60;57.20;;;;;;5112819;28;20418;-58
2021/03/26 12:02:24;;;;;;;36.20;21.63;;;17.60;57.10;;;;;;5112339;28;20027;-54
2021/03/26 12:05:11;;;;;;;34.97;20.40;;;17.50;57.40;;;;;;5112390;28;20027;-54
2021/03/26 12:07:40;;;;;;;;;;;17.50;57.90;;;;;;5110811;28;20604;-56
2021/03/26 12:10:40;;;;;;;48.50;26.15;;;17.40;57.90;;;;;;5112358;28;19919;-56
2021/03/26 12:13:28;;;;;;;37.45;21.23;;;17.40;57.20;;;;;;5114362;28;20114;-55
2021/03/26 12:16:16;;;;;;;36.42;20.88;;;17.40;57.60;;;;;;5116570;28;20027;-57
2021/03/26 12:19:16;;;;;;;43.45;22.95;;;17.40;58.40;;;;;;5116328;27;20471;-57
2021/03/26 12:22:05;;;;;;;36.92;22.50;;;17.30;58.40;;;;;;5116332;28;20048;-58
2021/03/26 12:24:36;;;;;;;38.78;22.80;;;17.40;58.10;;;;;;5114945;28;20031;-53
2021/03/26 12:27:20;;;;;;;39.58;22.77;;;17.40;58.00;;;;;;5116021;28;20103;-54
2021/03/26 12:29:51;;;;;;;38.13;21.25;;;17.50;57.80;;;;;;5116426;28;20027;-57
2021/03/26 12:32:28;;;;;;;33.70;19.20;;;17.50;57.90;;;;;;5113841;28;20036;-54
2021/03/26 12:35:17;;;;;;;33.20;19.83;;;17.50;58.10;;;;;;5115977;28;20024;-55
2021/03/26 12:37:45;;;;;;;30.20;17.00;;;17.60;57.70;;;;;;5114979;28;20184;-53
2021/03/26 12:40:55;;;;;;;32.50;18.25;;;17.70;57.80;;;;;;5116130;28;20023;-54
2021/03/26 12:43:30;;;;;;;40.80;21.90;;;17.70;57.50;;;;;;5066823;28;20051;-58
2021/03/26 12:46:11;;;;;;;33.58;17.98;;;17.70;57.00;;;;;;5092474;28;20024;-55
2021/03/26 12:49:04;;;;;;;29.10;15.38;;;17.80;56.70;;;;;;5093533;28;20086;-56
2021/03/26 12:51:38;;;;;;;35.83;19.40;;;17.80;57.20;;;;;;5110543;28;20016;-57
2021/03/26 12:54:39;;;;;;;41.78;22.42;;;17.70;57.20;;;;;;5094088;28;20029;-57
2021/03/26 12:57:12;;;;;;;46.63;24.90;;;17.60;56.70;;;;;;5095197;28;20031;-58
2021/03/26 12:59:46;;;;;;;35.83;22.05;;;17.40;57.40;;;;;;5091351;28;20024;-58
2021/03/26 13:02:30;;;;;;;35.70;20.15;;;17.10;57.90;;;;;;5090698;28;20483;-58
2021/03/26 13:05:15;;;;;;;33.08;19.45;;;16.90;58.20;;;;;;5099680;28;20488;-58
2021/03/26 13:07:51;;;;;;;29.75;15.80;;;16.70;58.70;;;;;;5114194;28;20035;-56
2021/03/26 13:10:49;;;;;;;23.35;13.13;;;16.50;59.20;;;;;;5103117;28;20032;-56
2021/03/26 13:13:26;;;;;;;;;;;16.40;60.10;;;;;;5094947;28;20051;-58
2021/03/26 13:16:10;;;;;;;20.05;10.65;;;16.30;60.60;;;;;;5094762;28;19953;-58
2021/03/26 13:18:55;;;;;;;20.52;10.93;;;16.30;60.60;;;;;;5094820;28;20156;-55
2021/03/26 13:21:21;;;;;;;18.58;10.60;;;16.20;61.10;;;;;;5081793;28;20083;-57
2021/03/26 13:24:18;;;;;;;25.65;12.98;;;16.10;61.30;;;;;;5089246;28;20471;-57
2021/03/26 13:26:43;;;;;;;;;;;16.10;61.50;;;;;;5059134;28;20142;-59
2021/03/26 13:29:24;;;;;;;15.87;9.27;;;16.10;62.30;;;;;;5085738;28;19917;-58
2021/03/26 13:31:53;;;;;;;15.20;10.07;;;16.10;62.10;;;;;;5092283;28;20459;-58
2021/03/26 13:34:32;;;;;;;19.77;11.65;;;16.10;62.10;;;;;;5092468;28;20057;-54
2021/03/26 13:37:16;;;;;;;19.08;11.10;;;16.20;62.40;;;;;;5089252;28;20027;-55
2021/03/26 13:40:06;;;;;;;18.15;9.60;;;16.20;62.30;;;;;;5078993;28;20035;-58
2021/03/26 13:42:45;;;;;;;24.23;13.80;;;16.20;62.70;;;;;;5092374;28;20526;-53